Aérodrome :
LOGIN :

S'inscrire | Disclaimer

   EN    FR    IT 

 










Légende :    VFR   VFR Marginal   IFR   IFR Intensif   IFR Très Intensif
Visi : 
Plafond : 
>= 8 km
>= 3000ft
5 à 8 km
1000 à 3000 ft
1500m à 5 km
500 à 1000 ft
800 à 1500m
200 à 500 ft
< 800m
< 200 ft
Symboles :   Orages  Brouillard  Fortes neiges  Fortes précipitations  Vent > 20 kt
SIGMETs :   Divers  Orages  Givrage  Turbulence  Onde Orograph.  Cendres Volcan.






- Altitude de l'aérodrome : 2220 ft


LOXZ - Zeltweg AB

DERNIER METAR :
  • 141150Z VRB02KT 9999 FEW060 SCT140 BKN200 20/08 Q1015 NOSIG

METARs EXPIRÉS :
  • 141050Z VRB03KT 9999 FEW060 SCT140 BKN200 18/08 Q1016 NOSIG
  • 141020Z 26003KT 140V310 9999 FEW060 BKN170 09/07 Q1016 NOSIG
  • 140950Z VRB03KT 9999 FEW050 BKN160 17/07 Q1017 NOSIG
  • 140920Z VRB02KT 9999 FEW050 SCT170 BKN200 16/08 Q1017 NOSIG
  • 140850Z VRB02KT 9999 FEW050 SCT170 BKN200 14/08 Q1017 NOSIG
  • 140820Z VRB02KT 9999 FEW050 SCT170 BKN200 14/08 Q1017 NOSIG
  • 140750Z VRB02KT 9999 SCT170 BKN270 12/08 Q1017 NOSIG
  • 140720Z VRB02KT 9999 SCT200 BKN250 11/07 Q1018 NOSIG
  • 140650Z 27004KT 230V320 9999 FEW002 BKN250 09/06 Q1018 NOSIG

TAF TAF LOXZ
Valide du 14 à 09h jusqu'au 14 à 18h UTC


140815Z 1409/1418 VRB03KT 9999 FEW050 BKN150
TEMPO 1411/1416 22007KT



MET'MAP, la Météo Aéronautique d'un coup d'oeil ! - Copyright ORBIFLY Décembre 2007 - Disclaimer

ORBIFLY MET'MAP TEAM :

Programmation & Développement : Alexandra Zaïnal
Sur une idée originale de : Baudouin d'Aumeries
Soutien technique & logistique : Manuel Goepfert
Assistance : Marc-Olivier Méhu




SOURCES & CREDITS :

   NOAA